Uakit, Russia
Current Conditions -  °F | °C
As of 2:30 PM on Saturday 20 Dec 2014 (Local Time) from UIAA Reporting Station
Broken Clouds Broken Clouds  
Wind Chill:   Ceiling: 20000
Heat Index:   Visibility: 6mi
Dew Point: -8°   Wind: 0mph
Humidity: 66%   Direction: NA
Pressure: 30.12"   Gusts: NA
Location:  55.5°N, 113.63°E
Report Text: UIAA 200630Z 00000MPS 9999 FEW100 BKN200 M17/M22 Q1020 TEMPO5000 BR RMK QFE706 29CLRD70
Loading
Personal Weather Stations






























Interactive Weather Map New forecast layout! Learn more

10-Day Weather Forecast

Advertisements
Track Severe Weather on mobile